sensor_id;sensor_type;location;lat;lon;timestamp;P1;durP1;ratioP1;P2;durP2;ratioP2
19609;SDS011;9952;47.122;-1.638;2022-11-15T00:01:26;8.63;;;1.53;;
19609;SDS011;9952;47.122;-1.638;2022-11-15T00:06:08;6.63;;;1.03;;
19609;SDS011;9952;47.122;-1.638;2022-11-15T00:10:56;9.57;;;1.60;;
19609;SDS011;9952;47.122;-1.638;2022-11-15T00:15:37;7.77;;;1.03;;
19609;SDS011;9952;47.122;-1.638;2022-11-15T00:20:19;6.33;;;1.30;;
19609;SDS011;9952;47.122;-1.638;2022-11-15T00:25:00;12.33;;;1.40;;
19609;SDS011;9952;47.122;-1.638;2022-11-15T00:29:41;8.17;;;0.70;;
19609;SDS011;9952;47.122;-1.638;2022-11-15T00:34:23;14.57;;;1.07;;
19609;SDS011;9952;47.122;-1.638;2022-11-15T00:39:04;7.90;;;1.07;;
19609;SDS011;9952;47.122;-1.638;2022-11-15T00:43:47;3.80;;;0.90;;
19609;SDS011;9952;47.122;-1.638;2022-11-15T00:48:28;17.50;;;1.33;;
19609;SDS011;9952;47.122;-1.638;2022-11-15T00:53:09;6.57;;;1.10;;
19609;SDS011;9952;47.122;-1.638;2022-11-15T00:57:50;6.50;;;1.07;;
19609;SDS011;9952;47.122;-1.638;2022-11-15T01:02:31;11.40;;;1.00;;
19609;SDS011;9952;47.122;-1.638;2022-11-15T01:07:12;4.43;;;0.60;;
19609;SDS011;9952;47.122;-1.638;2022-11-15T01:11:52;5.93;;;0.93;;
19609;SDS011;9952;47.122;-1.638;2022-11-15T01:16:33;6.50;;;0.93;;
19609;SDS011;9952;47.122;-1.638;2022-11-15T01:21:15;11.33;;;1.20;;
19609;SDS011;9952;47.122;-1.638;2022-11-15T01:25:59;6.13;;;1.07;;
19609;SDS011;9952;47.122;-1.638;2022-11-15T01:30:40;7.43;;;1.10;;
19609;SDS011;9952;47.122;-1.638;2022-11-15T01:35:21;10.20;;;1.13;;
19609;SDS011;9952;47.122;-1.638;2022-11-15T01:40:02;8.37;;;1.43;;
19609;SDS011;9952;47.122;-1.638;2022-11-15T01:44:45;8.83;;;0.87;;
19609;SDS011;9952;47.122;-1.638;2022-11-15T01:49:29;5.07;;;0.70;;
19609;SDS011;9952;47.122;-1.638;2022-11-15T01:54:14;7.20;;;1.07;;
19609;SDS011;9952;47.122;-1.638;2022-11-15T01:58:57;7.80;;;0.90;;
19609;SDS011;9952;47.122;-1.638;2022-11-15T02:03:49;5.10;;;1.20;;
19609;SDS011;9952;47.122;-1.638;2022-11-15T02:08:31;5.80;;;0.73;;
19609;SDS011;9952;47.122;-1.638;2022-11-15T02:13:11;9.30;;;0.77;;
19609;SDS011;9952;47.122;-1.638;2022-11-15T02:18:00;9.73;;;1.33;;
19609;SDS011;9952;47.122;-1.638;2022-11-15T02:43:09;8.33;;;0.97;;
19609;SDS011;9952;47.122;-1.638;2022-11-15T02:48:10;12.93;;;0.90;;
19609;SDS011;9952;47.122;-1.638;2022-11-15T02:52:52;10.87;;;1.53;;
19609;SDS011;9952;47.122;-1.638;2022-11-15T02:57:44;4.83;;;0.90;;
19609;SDS011;9952;47.122;-1.638;2022-11-15T03:07:31;6.13;;;1.00;;
19609;SDS011;9952;47.122;-1.638;2022-11-15T03:12:53;7.37;;;1.23;;
19609;SDS011;9952;47.122;-1.638;2022-11-15T03:17:40;11.80;;;1.47;;
19609;SDS011;9952;47.122;-1.638;2022-11-15T03:22:27;8.67;;;1.07;;
19609;SDS011;9952;47.122;-1.638;2022-11-15T03:27:12;4.30;;;1.13;;
19609;SDS011;9952;47.122;-1.638;2022-11-15T03:31:57;6.93;;;1.60;;
19609;SDS011;9952;47.122;-1.638;2022-11-15T03:36:42;9.47;;;1.83;;
19609;SDS011;9952;47.122;-1.638;2022-11-15T03:41:34;9.70;;;1.73;;
19609;SDS011;9952;47.122;-1.638;2022-11-15T03:51:55;8.20;;;1.03;;
19609;SDS011;9952;47.122;-1.638;2022-11-15T03:56:37;12.97;;;1.47;;
19609;SDS011;9952;47.122;-1.638;2022-11-15T04:01:18;13.17;;;1.57;;
19609;SDS011;9952;47.122;-1.638;2022-11-15T04:05:59;6.00;;;1.23;;
19609;SDS011;9952;47.122;-1.638;2022-11-15T04:10:39;12.37;;;1.73;;
19609;SDS011;9952;47.122;-1.638;2022-11-15T04:15:22;6.97;;;1.47;;
19609;SDS011;9952;47.122;-1.638;2022-11-15T04:20:04;9.67;;;1.13;;
19609;SDS011;9952;47.122;-1.638;2022-11-15T04:25:05;10.43;;;1.87;;
19609;SDS011;9952;47.122;-1.638;2022-11-15T04:29:45;9.83;;;1.50;;
19609;SDS011;9952;47.122;-1.638;2022-11-15T04:34:26;7.77;;;1.30;;
19609;SDS011;9952;47.122;-1.638;2022-11-15T04:39:07;8.57;;;1.53;;
19609;SDS011;9952;47.122;-1.638;2022-11-15T04:43:48;8.40;;;1.50;;
19609;SDS011;9952;47.122;-1.638;2022-11-15T04:48:29;5.97;;;1.43;;
19609;SDS011;9952;47.122;-1.638;2022-11-15T04:53:09;12.83;;;1.47;;
19609;SDS011;9952;47.122;-1.638;2022-11-15T04:57:56;9.63;;;1.70;;
19609;SDS011;9952;47.122;-1.638;2022-11-15T05:02:38;11.87;;;1.70;;
19609;SDS011;9952;47.122;-1.638;2022-11-15T05:07:38;12.97;;;1.80;;
19609;SDS011;9952;47.122;-1.638;2022-11-15T05:12:19;9.60;;;1.97;;
19609;SDS011;9952;47.122;-1.638;2022-11-15T05:16:59;9.97;;;1.63;;
19609;SDS011;9952;47.122;-1.638;2022-11-15T05:21:40;13.83;;;2.20;;
19609;SDS011;9952;47.122;-1.638;2022-11-15T05:26:21;15.87;;;2.47;;
19609;SDS011;9952;47.122;-1.638;2022-11-15T05:31:02;11.43;;;1.73;;
19609;SDS011;9952;47.122;-1.638;2022-11-15T05:35:48;18.13;;;2.60;;
19609;SDS011;9952;47.122;-1.638;2022-11-15T05:40:34;13.70;;;2.30;;
19609;SDS011;9952;47.122;-1.638;2022-11-15T05:45:15;20.00;;;3.50;;
19609;SDS011;9952;47.122;-1.638;2022-11-15T05:49:56;8.73;;;1.93;;
19609;SDS011;9952;47.122;-1.638;2022-11-15T05:54:37;15.73;;;2.83;;
19609;SDS011;9952;47.122;-1.638;2022-11-15T05:59:19;11.07;;;2.70;;
19609;SDS011;9952;47.122;-1.638;2022-11-15T06:04:00;20.30;;;3.20;;
19609;SDS011;9952;47.122;-1.638;2022-11-15T06:08:41;12.83;;;2.57;;
19609;SDS011;9952;47.122;-1.638;2022-11-15T06:13:21;14.47;;;2.87;;
19609;SDS011;9952;47.122;-1.638;2022-11-15T06:18:02;14.97;;;2.30;;
19609;SDS011;9952;47.122;-1.638;2022-11-15T06:22:43;15.40;;;2.70;;
19609;SDS011;9952;47.122;-1.638;2022-11-15T06:27:24;12.53;;;2.37;;
19609;SDS011;9952;47.122;-1.638;2022-11-15T06:32:04;9.47;;;2.23;;
19609;SDS011;9952;47.122;-1.638;2022-11-15T06:36:45;4.90;;;1.70;;
19609;SDS011;9952;47.122;-1.638;2022-11-15T06:41:26;7.53;;;1.60;;
19609;SDS011;9952;47.122;-1.638;2022-11-15T06:46:07;11.40;;;2.13;;
19609;SDS011;9952;47.122;-1.638;2022-11-15T06:50:52;11.47;;;1.93;;
19609;SDS011;9952;47.122;-1.638;2022-11-15T06:55:33;13.50;;;2.33;;
19609;SDS011;9952;47.122;-1.638;2022-11-15T07:00:14;9.00;;;2.00;;
19609;SDS011;9952;47.122;-1.638;2022-11-15T07:04:56;14.33;;;2.33;;
19609;SDS011;9952;47.122;-1.638;2022-11-15T07:09:37;11.27;;;1.77;;
19609;SDS011;9952;47.122;-1.638;2022-11-15T07:14:18;8.83;;;1.90;;
19609;SDS011;9952;47.122;-1.638;2022-11-15T07:18:59;9.20;;;2.10;;
19609;SDS011;9952;47.122;-1.638;2022-11-15T07:23:39;8.70;;;2.23;;
19609;SDS011;9952;47.122;-1.638;2022-11-15T07:28:20;7.83;;;2.13;;
19609;SDS011;9952;47.122;-1.638;2022-11-15T07:33:01;10.40;;;1.90;;
19609;SDS011;9952;47.122;-1.638;2022-11-15T07:37:42;7.57;;;2.07;;
19609;SDS011;9952;47.122;-1.638;2022-11-15T07:42:22;9.60;;;2.07;;
19609;SDS011;9952;47.122;-1.638;2022-11-15T07:47:22;6.30;;;1.53;;
19609;SDS011;9952;47.122;-1.638;2022-11-15T07:52:03;9.03;;;1.77;;
19609;SDS011;9952;47.122;-1.638;2022-11-15T07:56:44;5.13;;;1.50;;
19609;SDS011;9952;47.122;-1.638;2022-11-15T08:01:24;4.10;;;2.10;;
19609;SDS011;9952;47.122;-1.638;2022-11-15T08:06:05;9.30;;;1.87;;
19609;SDS011;9952;47.122;-1.638;2022-11-15T08:10:46;7.13;;;1.73;;
19609;SDS011;9952;47.122;-1.638;2022-11-15T08:15:27;7.77;;;1.57;;
19609;SDS011;9952;47.122;-1.638;2022-11-15T08:20:08;5.67;;;1.40;;
19609;SDS011;9952;47.122;-1.638;2022-11-15T08:24:50;7.23;;;1.80;;
19609;SDS011;9952;47.122;-1.638;2022-11-15T08:29:30;8.43;;;1.70;;
19609;SDS011;9952;47.122;-1.638;2022-11-15T08:34:11;9.43;;;2.20;;
19609;SDS011;9952;47.122;-1.638;2022-11-15T08:38:52;9.20;;;1.83;;
19609;SDS011;9952;47.122;-1.638;2022-11-15T08:43:33;9.20;;;1.67;;
19609;SDS011;9952;47.122;-1.638;2022-11-15T08:48:13;9.87;;;2.17;;
19609;SDS011;9952;47.122;-1.638;2022-11-15T08:52:54;6.43;;;2.00;;
19609;SDS011;9952;47.122;-1.638;2022-11-15T08:57:35;11.10;;;1.80;;
19609;SDS011;9952;47.122;-1.638;2022-11-15T09:02:16;8.03;;;1.80;;
19609;SDS011;9952;47.122;-1.638;2022-11-15T09:06:57;14.03;;;2.10;;
19609;SDS011;9952;47.122;-1.638;2022-11-15T09:11:38;7.73;;;2.07;;
19609;SDS011;9952;47.122;-1.638;2022-11-15T09:16:18;10.93;;;2.87;;
19609;SDS011;9952;47.122;-1.638;2022-11-15T09:20:59;6.40;;;1.53;;
19609;SDS011;9952;47.122;-1.638;2022-11-15T09:25:42;10.53;;;2.07;;
19609;SDS011;9952;47.122;-1.638;2022-11-15T09:30:23;6.30;;;1.93;;
19609;SDS011;9952;47.122;-1.638;2022-11-15T09:35:05;10.77;;;2.30;;
19609;SDS011;9952;47.122;-1.638;2022-11-15T09:39:46;13.83;;;2.23;;
19609;SDS011;9952;47.122;-1.638;2022-11-15T09:44:45;8.30;;;2.53;;
19609;SDS011;9952;47.122;-1.638;2022-11-15T09:49:50;9.83;;;2.27;;
19609;SDS011;9952;47.122;-1.638;2022-11-15T09:54:35;20.10;;;3.00;;
19609;SDS011;9952;47.122;-1.638;2022-11-15T10:04:29;16.13;;;2.83;;
19609;SDS011;9952;47.122;-1.638;2022-11-15T10:09:54;15.93;;;3.20;;
19609;SDS011;9952;47.122;-1.638;2022-11-15T10:14:20;17.70;;;3.00;;
19609;SDS011;9952;47.122;-1.638;2022-11-15T10:23:47;14.87;;;2.93;;
19609;SDS011;9952;47.122;-1.638;2022-11-15T10:28:30;9.77;;;2.17;;
19609;SDS011;9952;47.122;-1.638;2022-11-15T10:33:12;15.10;;;3.13;;
19609;SDS011;9952;47.122;-1.638;2022-11-15T10:38:04;14.63;;;2.30;;
19609;SDS011;9952;47.122;-1.638;2022-11-15T10:42:47;16.97;;;2.50;;
19609;SDS011;9952;47.122;-1.638;2022-11-15T10:47:43;11.93;;;2.30;;
19609;SDS011;9952;47.122;-1.638;2022-11-15T10:52:24;15.87;;;3.33;;
19609;SDS011;9952;47.122;-1.638;2022-11-15T10:57:06;10.87;;;2.30;;
19609;SDS011;9952;47.122;-1.638;2022-11-15T11:01:52;16.60;;;3.83;;
19609;SDS011;9952;47.122;-1.638;2022-11-15T11:06:49;12.23;;;2.63;;
19609;SDS011;9952;47.122;-1.638;2022-11-15T11:11:45;12.00;;;2.63;;
19609;SDS011;9952;47.122;-1.638;2022-11-15T11:16:47;10.83;;;2.33;;
19609;SDS011;9952;47.122;-1.638;2022-11-15T11:26:54;14.27;;;2.90;;
19609;SDS011;9952;47.122;-1.638;2022-11-15T11:36:57;10.57;;;1.93;;
19609;SDS011;9952;47.122;-1.638;2022-11-15T11:46:47;12.47;;;2.03;;
19609;SDS011;9952;47.122;-1.638;2022-11-15T11:52:15;22.70;;;2.20;;
19609;SDS011;9952;47.122;-1.638;2022-11-15T11:56:33;16.00;;;2.63;;
19609;SDS011;9952;47.122;-1.638;2022-11-15T12:06:31;12.97;;;2.57;;
19609;SDS011;9952;47.122;-1.638;2022-11-15T12:16:20;13.23;;;1.97;;
19609;SDS011;9952;47.122;-1.638;2022-11-15T12:25:54;8.77;;;1.93;;
19609;SDS011;9952;47.122;-1.638;2022-11-15T12:30:50;12.10;;;2.23;;
19609;SDS011;9952;47.122;-1.638;2022-11-15T12:35:35;15.57;;;1.97;;
19609;SDS011;9952;47.122;-1.638;2022-11-15T12:45:03;5.80;;;1.57;;
19609;SDS011;9952;47.122;-1.638;2022-11-15T12:50:11;12.03;;;1.87;;
19609;SDS011;9952;47.122;-1.638;2022-11-15T12:54:54;12.60;;;2.13;;
19609;SDS011;9952;47.122;-1.638;2022-11-15T13:04:44;9.23;;;1.77;;
19609;SDS011;9952;47.122;-1.638;2022-11-15T13:19:16;9.60;;;1.50;;
19609;SDS011;9952;47.122;-1.638;2022-11-15T13:24:02;13.07;;;2.00;;
19609;SDS011;9952;47.122;-1.638;2022-11-15T13:28:47;12.00;;;1.67;;
19609;SDS011;9952;47.122;-1.638;2022-11-15T13:33:32;11.30;;;1.43;;
19609;SDS011;9952;47.122;-1.638;2022-11-15T13:38:37;7.93;;;1.20;;
19609;SDS011;9952;47.122;-1.638;2022-11-15T13:48:02;11.60;;;1.70;;
19609;SDS011;9952;47.122;-1.638;2022-11-15T13:52:43;14.37;;;1.67;;
19609;SDS011;9952;47.122;-1.638;2022-11-15T13:57:27;14.40;;;1.53;;
19609;SDS011;9952;47.122;-1.638;2022-11-15T14:02:34;12.00;;;1.60;;
19609;SDS011;9952;47.122;-1.638;2022-11-15T14:07:17;9.50;;;1.77;;
19609;SDS011;9952;47.122;-1.638;2022-11-15T14:12:00;14.07;;;1.60;;
19609;SDS011;9952;47.122;-1.638;2022-11-15T14:16:43;12.50;;;2.00;;
19609;SDS011;9952;47.122;-1.638;2022-11-15T14:21:26;12.73;;;1.73;;
19609;SDS011;9952;47.122;-1.638;2022-11-15T14:26:10;13.20;;;2.07;;
19609;SDS011;9952;47.122;-1.638;2022-11-15T14:31:10;21.53;;;2.33;;
19609;SDS011;9952;47.122;-1.638;2022-11-15T14:35:54;13.60;;;1.93;;
19609;SDS011;9952;47.122;-1.638;2022-11-15T14:40:37;8.47;;;1.53;;
19609;SDS011;9952;47.122;-1.638;2022-11-15T14:45:19;11.10;;;1.50;;
19609;SDS011;9952;47.122;-1.638;2022-11-15T14:50:01;12.03;;;1.70;;
19609;SDS011;9952;47.122;-1.638;2022-11-15T14:54:42;19.20;;;2.73;;
19609;SDS011;9952;47.122;-1.638;2022-11-15T14:59:22;14.00;;;1.43;;
19609;SDS011;9952;47.122;-1.638;2022-11-15T15:04:03;9.90;;;1.60;;
19609;SDS011;9952;47.122;-1.638;2022-11-15T15:08:44;12.93;;;2.00;;
19609;SDS011;9952;47.122;-1.638;2022-11-15T15:13:28;12.90;;;1.70;;
19609;SDS011;9952;47.122;-1.638;2022-11-15T15:18:10;15.33;;;2.17;;
19609;SDS011;9952;47.122;-1.638;2022-11-15T15:22:51;12.57;;;1.80;;
19609;SDS011;9952;47.122;-1.638;2022-11-15T15:27:32;16.13;;;2.23;;
19609;SDS011;9952;47.122;-1.638;2022-11-15T15:32:13;15.23;;;1.90;;
19609;SDS011;9952;47.122;-1.638;2022-11-15T15:42:06;12.97;;;1.40;;
19609;SDS011;9952;47.122;-1.638;2022-11-15T15:46:47;7.83;;;1.23;;
19609;SDS011;9952;47.122;-1.638;2022-11-15T15:51:28;14.73;;;1.53;;
19609;SDS011;9952;47.122;-1.638;2022-11-15T15:56:09;9.20;;;1.70;;
19609;SDS011;9952;47.122;-1.638;2022-11-15T16:00:49;12.40;;;1.70;;
19609;SDS011;9952;47.122;-1.638;2022-11-15T16:05:30;12.70;;;1.77;;
19609;SDS011;9952;47.122;-1.638;2022-11-15T16:10:19;16.80;;;2.00;;
19609;SDS011;9952;47.122;-1.638;2022-11-15T16:15:00;9.83;;;2.47;;
19609;SDS011;9952;47.122;-1.638;2022-11-15T16:19:42;12.93;;;1.73;;
19609;SDS011;9952;47.122;-1.638;2022-11-15T16:24:23;11.83;;;1.70;;
19609;SDS011;9952;47.122;-1.638;2022-11-15T16:29:03;11.27;;;1.90;;
19609;SDS011;9952;47.122;-1.638;2022-11-15T16:33:44;11.57;;;1.67;;
19609;SDS011;9952;47.122;-1.638;2022-11-15T16:38:25;9.67;;;2.20;;
19609;SDS011;9952;47.122;-1.638;2022-11-15T16:43:06;16.10;;;1.90;;
19609;SDS011;9952;47.122;-1.638;2022-11-15T16:47:47;16.00;;;2.23;;
19609;SDS011;9952;47.122;-1.638;2022-11-15T16:52:28;15.60;;;2.40;;
19609;SDS011;9952;47.122;-1.638;2022-11-15T16:57:09;12.67;;;2.70;;
19609;SDS011;9952;47.122;-1.638;2022-11-15T17:01:50;9.67;;;2.27;;
19609;SDS011;9952;47.122;-1.638;2022-11-15T17:06:31;8.40;;;2.33;;
19609;SDS011;9952;47.122;-1.638;2022-11-15T17:11:14;11.30;;;1.60;;
19609;SDS011;9952;47.122;-1.638;2022-11-15T17:16:07;17.10;;;1.57;;
19609;SDS011;9952;47.122;-1.638;2022-11-15T17:20:49;10.70;;;1.90;;
19609;SDS011;9952;47.122;-1.638;2022-11-15T17:25:30;13.13;;;1.60;;
19609;SDS011;9952;47.122;-1.638;2022-11-15T17:30:11;13.27;;;2.07;;
19609;SDS011;9952;47.122;-1.638;2022-11-15T17:34:54;13.13;;;1.40;;
19609;SDS011;9952;47.122;-1.638;2022-11-15T17:39:35;12.97;;;2.40;;
19609;SDS011;9952;47.122;-1.638;2022-11-15T17:44:15;14.27;;;2.20;;
19609;SDS011;9952;47.122;-1.638;2022-11-15T17:48:56;9.97;;;1.90;;
19609;SDS011;9952;47.122;-1.638;2022-11-15T17:53:38;13.10;;;1.83;;
19609;SDS011;9952;47.122;-1.638;2022-11-15T17:58:21;10.53;;;1.77;;
19609;SDS011;9952;47.122;-1.638;2022-11-15T18:03:02;14.83;;;1.83;;
19609;SDS011;9952;47.122;-1.638;2022-11-15T18:07:42;11.97;;;1.80;;
19609;SDS011;9952;47.122;-1.638;2022-11-15T18:12:23;11.83;;;3.30;;
19609;SDS011;9952;47.122;-1.638;2022-11-15T18:17:04;13.27;;;2.87;;
19609;SDS011;9952;47.122;-1.638;2022-11-15T18:21:45;11.00;;;2.93;;
19609;SDS011;9952;47.122;-1.638;2022-11-15T18:26:39;11.07;;;2.17;;
19609;SDS011;9952;47.122;-1.638;2022-11-15T18:31:23;10.60;;;2.10;;
19609;SDS011;9952;47.122;-1.638;2022-11-15T18:36:06;16.13;;;2.80;;
19609;SDS011;9952;47.122;-1.638;2022-11-15T18:40:49;11.80;;;1.83;;
19609;SDS011;9952;47.122;-1.638;2022-11-15T18:45:29;12.53;;;2.20;;
19609;SDS011;9952;47.122;-1.638;2022-11-15T18:50:14;17.10;;;4.27;;
19609;SDS011;9952;47.122;-1.638;2022-11-15T18:54:55;20.13;;;4.53;;
19609;SDS011;9952;47.122;-1.638;2022-11-15T18:59:36;14.60;;;2.43;;
19609;SDS011;9952;47.122;-1.638;2022-11-15T19:04:17;17.47;;;3.13;;
19609;SDS011;9952;47.122;-1.638;2022-11-15T19:08:59;11.17;;;2.17;;
19609;SDS011;9952;47.122;-1.638;2022-11-15T19:13:40;8.50;;;1.50;;
19609;SDS011;9952;47.122;-1.638;2022-11-15T19:18:22;11.90;;;1.80;;
19609;SDS011;9952;47.122;-1.638;2022-11-15T19:23:02;15.23;;;2.60;;
19609;SDS011;9952;47.122;-1.638;2022-11-15T19:27:43;20.60;;;1.97;;
19609;SDS011;9952;47.122;-1.638;2022-11-15T19:32:24;10.93;;;2.50;;
19609;SDS011;9952;47.122;-1.638;2022-11-15T19:37:06;16.87;;;2.47;;
19609;SDS011;9952;47.122;-1.638;2022-11-15T19:41:47;11.90;;;2.90;;
19609;SDS011;9952;47.122;-1.638;2022-11-15T19:46:29;16.90;;;2.93;;
19609;SDS011;9952;47.122;-1.638;2022-11-15T19:51:10;14.43;;;2.37;;
19609;SDS011;9952;47.122;-1.638;2022-11-15T19:55:57;17.57;;;2.80;;
19609;SDS011;9952;47.122;-1.638;2022-11-15T20:00:49;12.67;;;2.10;;
19609;SDS011;9952;47.122;-1.638;2022-11-15T20:05:30;14.57;;;1.90;;
19609;SDS011;9952;47.122;-1.638;2022-11-15T20:10:11;6.67;;;1.50;;
19609;SDS011;9952;47.122;-1.638;2022-11-15T20:14:52;6.77;;;1.63;;
19609;SDS011;9952;47.122;-1.638;2022-11-15T20:19:32;11.43;;;2.10;;
19609;SDS011;9952;47.122;-1.638;2022-11-15T20:24:13;7.77;;;1.40;;
19609;SDS011;9952;47.122;-1.638;2022-11-15T20:28:54;6.03;;;1.43;;
19609;SDS011;9952;47.122;-1.638;2022-11-15T20:33:40;4.67;;;0.93;;
19609;SDS011;9952;47.122;-1.638;2022-11-15T20:38:20;5.43;;;0.80;;
19609;SDS011;9952;47.122;-1.638;2022-11-15T20:43:01;3.67;;;0.83;;
19609;SDS011;9952;47.122;-1.638;2022-11-15T20:47:42;6.73;;;1.27;;
19609;SDS011;9952;47.122;-1.638;2022-11-15T20:52:23;3.73;;;0.57;;
19609;SDS011;9952;47.122;-1.638;2022-11-15T20:57:04;3.33;;;0.50;;
19609;SDS011;9952;47.122;-1.638;2022-11-15T21:01:45;5.60;;;1.00;;
19609;SDS011;9952;47.122;-1.638;2022-11-15T21:06:27;5.67;;;0.60;;
19609;SDS011;9952;47.122;-1.638;2022-11-15T21:11:07;7.40;;;1.10;;
19609;SDS011;9952;47.122;-1.638;2022-11-15T21:16:07;6.60;;;0.63;;
19609;SDS011;9952;47.122;-1.638;2022-11-15T21:20:48;5.47;;;0.70;;
19609;SDS011;9952;47.122;-1.638;2022-11-15T21:25:29;6.03;;;0.70;;
19609;SDS011;9952;47.122;-1.638;2022-11-15T21:30:11;5.13;;;1.03;;
19609;SDS011;9952;47.122;-1.638;2022-11-15T21:34:52;14.60;;;1.90;;
19609;SDS011;9952;47.122;-1.638;2022-11-15T21:39:33;10.03;;;1.60;;
19609;SDS011;9952;47.122;-1.638;2022-11-15T21:44:14;10.83;;;2.60;;
19609;SDS011;9952;47.122;-1.638;2022-11-15T21:48:55;9.33;;;1.63;;
19609;SDS011;9952;47.122;-1.638;2022-11-15T21:53:36;6.30;;;0.90;;
19609;SDS011;9952;47.122;-1.638;2022-11-15T21:58:17;9.83;;;1.50;;
19609;SDS011;9952;47.122;-1.638;2022-11-15T22:02:59;9.20;;;1.73;;
19609;SDS011;9952;47.122;-1.638;2022-11-15T22:07:39;5.60;;;1.53;;
19609;SDS011;9952;47.122;-1.638;2022-11-15T22:12:20;6.33;;;1.57;;
19609;SDS011;9952;47.122;-1.638;2022-11-15T22:17:01;11.07;;;2.00;;
19609;SDS011;9952;47.122;-1.638;2022-11-15T22:21:41;10.13;;;1.40;;
19609;SDS011;9952;47.122;-1.638;2022-11-15T22:26:22;6.10;;;0.50;;
19609;SDS011;9952;47.122;-1.638;2022-11-15T22:31:03;5.87;;;0.60;;
19609;SDS011;9952;47.122;-1.638;2022-11-15T22:35:44;6.03;;;0.53;;
19609;SDS011;9952;47.122;-1.638;2022-11-15T22:40:25;5.20;;;0.60;;
19609;SDS011;9952;47.122;-1.638;2022-11-15T22:45:06;3.07;;;0.60;;
19609;SDS011;9952;47.122;-1.638;2022-11-15T22:49:47;2.97;;;0.73;;
19609;SDS011;9952;47.122;-1.638;2022-11-15T22:54:28;6.23;;;0.70;;
19609;SDS011;9952;47.122;-1.638;2022-11-15T22:59:09;5.10;;;0.80;;
19609;SDS011;9952;47.122;-1.638;2022-11-15T23:03:50;22.47;;;2.03;;
19609;SDS011;9952;47.122;-1.638;2022-11-15T23:08:30;8.23;;;0.80;;
19609;SDS011;9952;47.122;-1.638;2022-11-15T23:13:14;9.53;;;0.90;;
19609;SDS011;9952;47.122;-1.638;2022-11-15T23:17:55;5.13;;;0.93;;
19609;SDS011;9952;47.122;-1.638;2022-11-15T23:22:37;3.63;;;0.50;;
19609;SDS011;9952;47.122;-1.638;2022-11-15T23:27:27;7.90;;;0.93;;
19609;SDS011;9952;47.122;-1.638;2022-11-15T23:32:07;5.77;;;0.70;;
19609;SDS011;9952;47.122;-1.638;2022-11-15T23:37:07;4.70;;;0.90;;
19609;SDS011;9952;47.122;-1.638;2022-11-15T23:41:49;7.00;;;0.70;;
19609;SDS011;9952;47.122;-1.638;2022-11-15T23:46:30;6.83;;;0.60;;
19609;SDS011;9952;47.122;-1.638;2022-11-15T23:51:11;5.90;;;0.73;;
19609;SDS011;9952;47.122;-1.638;2022-11-15T23:55:55;4.13;;;0.60;;
